sensor_id;sensor_type;location;lat;lon;timestamp;temperature;humidity
5901;DHT22;2976;49.764;9.796;2023-05-10T00:00:37;13.30;99.90
5901;DHT22;2976;49.764;9.796;2023-05-10T00:03:02;13.30;99.90
5901;DHT22;2976;49.764;9.796;2023-05-10T00:05:30;13.30;99.90
5901;DHT22;2976;49.764;9.796;2023-05-10T00:07:56;13.30;99.90
5901;DHT22;2976;49.764;9.796;2023-05-10T00:10:21;13.30;99.90
5901;DHT22;2976;49.764;9.796;2023-05-10T00:12:47;13.30;99.90
5901;DHT22;2976;49.764;9.796;2023-05-10T00:15:13;13.30;99.90
5901;DHT22;2976;49.764;9.796;2023-05-10T00:17:38;13.20;99.90
5901;DHT22;2976;49.764;9.796;2023-05-10T00:20:04;13.20;99.90
5901;DHT22;2976;49.764;9.796;2023-05-10T00:22:30;13.20;99.90
5901;DHT22;2976;49.764;9.796;2023-05-10T00:24:57;13.20;99.90
5901;DHT22;2976;49.764;9.796;2023-05-10T00:27:22;13.20;99.90
5901;DHT22;2976;49.764;9.796;2023-05-10T00:29:48;13.20;99.90
5901;DHT22;2976;49.764;9.796;2023-05-10T00:32:13;13.20;99.90
5901;DHT22;2976;49.764;9.796;2023-05-10T00:34:39;13.20;99.90
5901;DHT22;2976;49.764;9.796;2023-05-10T00:37:05;13.20;99.90
5901;DHT22;2976;49.764;9.796;2023-05-10T00:39:30;13.20;99.90
5901;DHT22;2976;49.764;9.796;2023-05-10T00:41:56;13.20;99.90
5901;DHT22;2976;49.764;9.796;2023-05-10T00:44:22;13.20;99.90
5901;DHT22;2976;49.764;9.796;2023-05-10T00:46:49;13.10;99.90
5901;DHT22;2976;49.764;9.796;2023-05-10T00:49:15;13.20;99.90
5901;DHT22;2976;49.764;9.796;2023-05-10T00:51:41;13.10;99.90
5901;DHT22;2976;49.764;9.796;2023-05-10T00:54:10;13.10;99.90
5901;DHT22;2976;49.764;9.796;2023-05-10T00:56:36;13.20;99.90
5901;DHT22;2976;49.764;9.796;2023-05-10T00:59:03;13.20;99.90
5901;DHT22;2976;49.764;9.796;2023-05-10T01:01:29;13.20;99.90
5901;DHT22;2976;49.764;9.796;2023-05-10T01:03:55;13.20;99.90
5901;DHT22;2976;49.764;9.796;2023-05-10T01:06:21;13.20;99.90
5901;DHT22;2976;49.764;9.796;2023-05-10T01:08:46;13.20;99.90
5901;DHT22;2976;49.764;9.796;2023-05-10T01:11:13;13.20;99.90
5901;DHT22;2976;49.764;9.796;2023-05-10T01:13:40;13.20;99.90
5901;DHT22;2976;49.764;9.796;2023-05-10T01:16:06;13.20;99.90
5901;DHT22;2976;49.764;9.796;2023-05-10T01:18:38;13.20;99.90
5901;DHT22;2976;49.764;9.796;2023-05-10T01:34:17;13.20;99.90
5901;DHT22;2976;49.764;9.796;2023-05-10T01:36:53;13.10;99.90
5901;DHT22;2976;49.764;9.796;2023-05-10T01:39:45;13.00;99.90
5901;DHT22;2976;49.764;9.796;2023-05-10T01:42:17;13.00;99.90
5901;DHT22;2976;49.764;9.796;2023-05-10T01:47:15;12.90;99.90
5901;DHT22;2976;49.764;9.796;2023-05-10T01:49:47;12.90;99.90
5901;DHT22;2976;49.764;9.796;2023-05-10T01:52:16;12.90;99.90
5901;DHT22;2976;49.764;9.796;2023-05-10T01:55:01;12.90;99.90
5901;DHT22;2976;49.764;9.796;2023-05-10T01:57:32;12.80;99.90
5901;DHT22;2976;49.764;9.796;2023-05-10T01:59:59;12.80;99.90
5901;DHT22;2976;49.764;9.796;2023-05-10T02:02:27;12.70;99.90
5901;DHT22;2976;49.764;9.796;2023-05-10T02:04:55;12.70;99.90
5901;DHT22;2976;49.764;9.796;2023-05-10T02:07:22;12.60;99.90
5901;DHT22;2976;49.764;9.796;2023-05-10T02:09:48;12.60;99.90
5901;DHT22;2976;49.764;9.796;2023-05-10T02:12:15;12.50;99.90
5901;DHT22;2976;49.764;9.796;2023-05-10T02:14:42;12.50;99.90
5901;DHT22;2976;49.764;9.796;2023-05-10T02:17:08;12.50;99.90
5901;DHT22;2976;49.764;9.796;2023-05-10T02:19:37;12.50;99.90
5901;DHT22;2976;49.764;9.796;2023-05-10T02:22:03;12.40;99.90
5901;DHT22;2976;49.764;9.796;2023-05-10T02:24:30;12.30;99.90
5901;DHT22;2976;49.764;9.796;2023-05-10T02:26:57;12.30;99.90
5901;DHT22;2976;49.764;9.796;2023-05-10T02:29:25;12.30;99.90
5901;DHT22;2976;49.764;9.796;2023-05-10T02:31:54;12.20;99.90
5901;DHT22;2976;49.764;9.796;2023-05-10T02:34:22;12.20;99.90
5901;DHT22;2976;49.764;9.796;2023-05-10T02:36:48;12.20;99.90
5901;DHT22;2976;49.764;9.796;2023-05-10T02:39:15;12.20;99.90
5901;DHT22;2976;49.764;9.796;2023-05-10T02:41:42;12.10;99.90
5901;DHT22;2976;49.764;9.796;2023-05-10T02:44:09;12.10;99.90
5901;DHT22;2976;49.764;9.796;2023-05-10T02:46:35;12.00;99.90
5901;DHT22;2976;49.764;9.796;2023-05-10T02:49:02;12.00;99.90
5901;DHT22;2976;49.764;9.796;2023-05-10T02:51:31;12.00;99.90
5901;DHT22;2976;49.764;9.796;2023-05-10T02:53:57;12.00;99.90
5901;DHT22;2976;49.764;9.796;2023-05-10T02:56:31;12.00;99.90
5901;DHT22;2976;49.764;9.796;2023-05-10T02:58:58;12.00;99.90
5901;DHT22;2976;49.764;9.796;2023-05-10T03:01:23;12.00;99.90
5901;DHT22;2976;49.764;9.796;2023-05-10T03:03:49;12.00;99.90
5901;DHT22;2976;49.764;9.796;2023-05-10T03:06:15;11.90;99.90
5901;DHT22;2976;49.764;9.796;2023-05-10T03:08:42;12.00;99.90
5901;DHT22;2976;49.764;9.796;2023-05-10T03:11:26;12.00;99.90
5901;DHT22;2976;49.764;9.796;2023-05-10T03:17:30;11.90;99.90
5901;DHT22;2976;49.764;9.796;2023-05-10T03:19:58;11.80;99.90
5901;DHT22;2976;49.764;9.796;2023-05-10T03:22:36;11.80;99.90
5901;DHT22;2976;49.764;9.796;2023-05-10T03:25:05;11.70;99.90
5901;DHT22;2976;49.764;9.796;2023-05-10T03:27:31;11.70;99.90
5901;DHT22;2976;49.764;9.796;2023-05-10T03:29:58;11.80;99.90
5901;DHT22;2976;49.764;9.796;2023-05-10T03:32:24;11.80;99.90
5901;DHT22;2976;49.764;9.796;2023-05-10T03:34:50;11.80;99.90
5901;DHT22;2976;49.764;9.796;2023-05-10T03:37:15;11.80;99.90
5901;DHT22;2976;49.764;9.796;2023-05-10T03:39:41;11.80;99.90
5901;DHT22;2976;49.764;9.796;2023-05-10T03:42:06;11.90;99.90
5901;DHT22;2976;49.764;9.796;2023-05-10T03:44:32;11.90;99.90
5901;DHT22;2976;49.764;9.796;2023-05-10T03:46:58;11.90;99.90
5901;DHT22;2976;49.764;9.796;2023-05-10T03:49:24;11.90;99.90
5901;DHT22;2976;49.764;9.796;2023-05-10T03:51:50;11.90;99.90
5901;DHT22;2976;49.764;9.796;2023-05-10T03:54:15;12.00;99.90
5901;DHT22;2976;49.764;9.796;2023-05-10T03:56:41;12.00;99.90
5901;DHT22;2976;49.764;9.796;2023-05-10T03:59:06;11.90;99.90
5901;DHT22;2976;49.764;9.796;2023-05-10T04:01:34;11.90;99.90
5901;DHT22;2976;49.764;9.796;2023-05-10T04:03:59;11.90;99.90
5901;DHT22;2976;49.764;9.796;2023-05-10T04:06:25;11.90;99.90
5901;DHT22;2976;49.764;9.796;2023-05-10T04:08:51;11.90;99.90
5901;DHT22;2976;49.764;9.796;2023-05-10T04:11:16;11.80;99.90
5901;DHT22;2976;49.764;9.796;2023-05-10T04:13:42;11.80;99.90
5901;DHT22;2976;49.764;9.796;2023-05-10T04:16:08;11.80;99.90
5901;DHT22;2976;49.764;9.796;2023-05-10T04:18:34;11.90;99.90
5901;DHT22;2976;49.764;9.796;2023-05-10T04:21:00;11.90;99.90
5901;DHT22;2976;49.764;9.796;2023-05-10T04:23:27;11.90;99.90
5901;DHT22;2976;49.764;9.796;2023-05-10T04:25:52;11.90;99.90
5901;DHT22;2976;49.764;9.796;2023-05-10T04:28:23;12.00;99.90
5901;DHT22;2976;49.764;9.796;2023-05-10T04:30:49;12.10;99.90
5901;DHT22;2976;49.764;9.796;2023-05-10T04:33:14;12.10;99.90
5901;DHT22;2976;49.764;9.796;2023-05-10T04:35:40;12.10;99.90
5901;DHT22;2976;49.764;9.796;2023-05-10T04:38:06;12.10;99.90
5901;DHT22;2976;49.764;9.796;2023-05-10T04:40:32;12.10;99.90
5901;DHT22;2976;49.764;9.796;2023-05-10T04:42:58;12.20;99.90
5901;DHT22;2976;49.764;9.796;2023-05-10T04:45:23;12.20;99.90
5901;DHT22;2976;49.764;9.796;2023-05-10T04:47:49;12.20;99.90
5901;DHT22;2976;49.764;9.796;2023-05-10T04:50:14;12.20;99.90
5901;DHT22;2976;49.764;9.796;2023-05-10T04:52:40;12.20;99.90
5901;DHT22;2976;49.764;9.796;2023-05-10T04:55:06;12.20;99.90
5901;DHT22;2976;49.764;9.796;2023-05-10T04:57:34;12.30;99.90
5901;DHT22;2976;49.764;9.796;2023-05-10T05:00:00;12.30;99.90
5901;DHT22;2976;49.764;9.796;2023-05-10T05:02:25;12.40;99.90
5901;DHT22;2976;49.764;9.796;2023-05-10T05:04:51;12.30;99.90
5901;DHT22;2976;49.764;9.796;2023-05-10T05:07:17;12.40;99.90
5901;DHT22;2976;49.764;9.796;2023-05-10T05:09:42;12.40;99.90
5901;DHT22;2976;49.764;9.796;2023-05-10T05:12:08;12.50;99.90
5901;DHT22;2976;49.764;9.796;2023-05-10T05:14:33;12.50;99.90
5901;DHT22;2976;49.764;9.796;2023-05-10T05:16:59;12.50;99.90
5901;DHT22;2976;49.764;9.796;2023-05-10T05:19:25;12.50;99.90
5901;DHT22;2976;49.764;9.796;2023-05-10T05:21:50;12.60;99.90
5901;DHT22;2976;49.764;9.796;2023-05-10T05:24:16;12.60;99.90
5901;DHT22;2976;49.764;9.796;2023-05-10T05:26:41;12.70;99.90
5901;DHT22;2976;49.764;9.796;2023-05-10T05:29:07;12.80;99.90
5901;DHT22;2976;49.764;9.796;2023-05-10T05:31:32;12.90;99.90
5901;DHT22;2976;49.764;9.796;2023-05-10T05:33:58;12.90;99.90
5901;DHT22;2976;49.764;9.796;2023-05-10T05:36:23;13.00;99.90
5901;DHT22;2976;49.764;9.796;2023-05-10T05:38:49;13.00;99.90
5901;DHT22;2976;49.764;9.796;2023-05-10T05:41:15;12.90;99.90
5901;DHT22;2976;49.764;9.796;2023-05-10T05:43:40;12.70;99.90
5901;DHT22;2976;49.764;9.796;2023-05-10T05:46:06;12.80;99.90
5901;DHT22;2976;49.764;9.796;2023-05-10T05:48:31;12.80;99.90
5901;DHT22;2976;49.764;9.796;2023-05-10T05:50:57;12.80;99.90
5901;DHT22;2976;49.764;9.796;2023-05-10T05:53:23;12.90;99.90
5901;DHT22;2976;49.764;9.796;2023-05-10T05:55:56;12.90;99.90
5901;DHT22;2976;49.764;9.796;2023-05-10T05:58:22;12.80;99.90
5901;DHT22;2976;49.764;9.796;2023-05-10T06:00:48;12.80;99.90
5901;DHT22;2976;49.764;9.796;2023-05-10T06:03:14;13.00;99.90
5901;DHT22;2976;49.764;9.796;2023-05-10T06:05:39;13.10;99.90
5901;DHT22;2976;49.764;9.796;2023-05-10T06:08:05;13.10;99.90
5901;DHT22;2976;49.764;9.796;2023-05-10T06:10:31;13.20;99.90
5901;DHT22;2976;49.764;9.796;2023-05-10T06:12:56;13.20;99.90
5901;DHT22;2976;49.764;9.796;2023-05-10T06:15:22;13.30;99.90
5901;DHT22;2976;49.764;9.796;2023-05-10T06:17:47;13.40;99.90
5901;DHT22;2976;49.764;9.796;2023-05-10T06:20:15;13.40;99.90
5901;DHT22;2976;49.764;9.796;2023-05-10T06:22:41;13.70;99.90
5901;DHT22;2976;49.764;9.796;2023-05-10T06:25:07;14.00;99.90
5901;DHT22;2976;49.764;9.796;2023-05-10T06:27:32;13.90;99.90
5901;DHT22;2976;49.764;9.796;2023-05-10T06:29:58;14.00;99.90
5901;DHT22;2976;49.764;9.796;2023-05-10T06:32:23;14.10;99.90
5901;DHT22;2976;49.764;9.796;2023-05-10T06:34:49;14.20;99.90
5901;DHT22;2976;49.764;9.796;2023-05-10T06:37:14;14.20;99.90
5901;DHT22;2976;49.764;9.796;2023-05-10T06:39:40;14.10;99.90
5901;DHT22;2976;49.764;9.796;2023-05-10T06:42:05;13.90;99.90
5901;DHT22;2976;49.764;9.796;2023-05-10T06:44:31;13.80;99.90
5901;DHT22;2976;49.764;9.796;2023-05-10T06:46:57;13.80;99.90
5901;DHT22;2976;49.764;9.796;2023-05-10T06:49:22;13.80;99.90
5901;DHT22;2976;49.764;9.796;2023-05-10T06:51:48;13.80;99.90
5901;DHT22;2976;49.764;9.796;2023-05-10T06:54:14;13.80;99.90
5901;DHT22;2976;49.764;9.796;2023-05-10T06:56:39;14.00;99.90
5901;DHT22;2976;49.764;9.796;2023-05-10T06:59:05;14.20;99.90
5901;DHT22;2976;49.764;9.796;2023-05-10T07:01:31;14.20;99.90
5901;DHT22;2976;49.764;9.796;2023-05-10T07:03:57;14.10;99.90
5901;DHT22;2976;49.764;9.796;2023-05-10T07:06:22;14.10;99.90
5901;DHT22;2976;49.764;9.796;2023-05-10T07:08:48;14.10;99.90
5901;DHT22;2976;49.764;9.796;2023-05-10T07:11:14;14.00;99.90
5901;DHT22;2976;49.764;9.796;2023-05-10T07:13:39;13.90;99.90
5901;DHT22;2976;49.764;9.796;2023-05-10T07:16:09;13.80;99.90
5901;DHT22;2976;49.764;9.796;2023-05-10T07:18:35;13.70;99.90
5901;DHT22;2976;49.764;9.796;2023-05-10T07:21:00;13.70;99.90
5901;DHT22;2976;49.764;9.796;2023-05-10T07:23:27;13.60;99.90
5901;DHT22;2976;49.764;9.796;2023-05-10T07:25:53;13.60;99.90
5901;DHT22;2976;49.764;9.796;2023-05-10T07:28:19;13.60;99.90
5901;DHT22;2976;49.764;9.796;2023-05-10T07:30:45;13.70;99.90
5901;DHT22;2976;49.764;9.796;2023-05-10T07:33:13;13.70;99.90
5901;DHT22;2976;49.764;9.796;2023-05-10T07:35:39;14.00;99.90
5901;DHT22;2976;49.764;9.796;2023-05-10T07:38:05;14.20;99.90
5901;DHT22;2976;49.764;9.796;2023-05-10T07:40:31;14.30;99.90
5901;DHT22;2976;49.764;9.796;2023-05-10T07:42:57;14.50;99.90
5901;DHT22;2976;49.764;9.796;2023-05-10T07:45:22;14.50;99.90
5901;DHT22;2976;49.764;9.796;2023-05-10T07:47:48;14.30;99.90
5901;DHT22;2976;49.764;9.796;2023-05-10T07:50:14;14.20;99.90
5901;DHT22;2976;49.764;9.796;2023-05-10T07:52:40;14.20;99.90
5901;DHT22;2976;49.764;9.796;2023-05-10T07:55:06;14.30;99.90
5901;DHT22;2976;49.764;9.796;2023-05-10T07:57:33;14.50;99.90
5901;DHT22;2976;49.764;9.796;2023-05-10T07:59:59;14.70;99.90
5901;DHT22;2976;49.764;9.796;2023-05-10T08:02:24;14.80;99.90
5901;DHT22;2976;49.764;9.796;2023-05-10T08:04:50;15.00;99.90
5901;DHT22;2976;49.764;9.796;2023-05-10T08:07:16;15.60;99.90
5901;DHT22;2976;49.764;9.796;2023-05-10T08:09:42;15.90;99.90
5901;DHT22;2976;49.764;9.796;2023-05-10T08:12:08;15.90;99.90
5901;DHT22;2976;49.764;9.796;2023-05-10T08:14:33;16.00;99.90
5901;DHT22;2976;49.764;9.796;2023-05-10T08:16:59;16.50;99.90
5901;DHT22;2976;49.764;9.796;2023-05-10T08:19:24;16.50;99.90
5901;DHT22;2976;49.764;9.796;2023-05-10T08:21:50;16.20;99.90
5901;DHT22;2976;49.764;9.796;2023-05-10T08:24:16;15.80;99.90
5901;DHT22;2976;49.764;9.796;2023-05-10T08:26:41;15.60;99.90
5901;DHT22;2976;49.764;9.796;2023-05-10T08:29:07;15.30;99.90
5901;DHT22;2976;49.764;9.796;2023-05-10T08:31:32;15.10;99.90
5901;DHT22;2976;49.764;9.796;2023-05-10T08:33:58;15.00;99.90
5901;DHT22;2976;49.764;9.796;2023-05-10T08:36:23;14.90;99.90
5901;DHT22;2976;49.764;9.796;2023-05-10T08:38:53;15.00;99.90
5901;DHT22;2976;49.764;9.796;2023-05-10T08:41:23;15.10;99.90
5901;DHT22;2976;49.764;9.796;2023-05-10T08:43:53;15.30;99.90
5901;DHT22;2976;49.764;9.796;2023-05-10T08:46:20;15.10;99.90
5901;DHT22;2976;49.764;9.796;2023-05-10T08:48:47;15.00;99.90
5901;DHT22;2976;49.764;9.796;2023-05-10T08:51:19;15.00;99.90
5901;DHT22;2976;49.764;9.796;2023-05-10T08:53:45;15.00;99.90
5901;DHT22;2976;49.764;9.796;2023-05-10T08:56:11;15.10;99.90
5901;DHT22;2976;49.764;9.796;2023-05-10T08:58:37;15.20;99.90
5901;DHT22;2976;49.764;9.796;2023-05-10T09:01:04;15.30;99.90
5901;DHT22;2976;49.764;9.796;2023-05-10T09:03:30;15.50;99.90
5901;DHT22;2976;49.764;9.796;2023-05-10T09:05:56;15.40;99.90
5901;DHT22;2976;49.764;9.796;2023-05-10T09:08:26;15.20;99.90
5901;DHT22;2976;49.764;9.796;2023-05-10T09:10:53;15.00;99.90
5901;DHT22;2976;49.764;9.796;2023-05-10T09:13:20;15.00;99.90
5901;DHT22;2976;49.764;9.796;2023-05-10T09:15:47;14.80;99.90
5901;DHT22;2976;49.764;9.796;2023-05-10T09:18:13;15.00;99.90
5901;DHT22;2976;49.764;9.796;2023-05-10T09:20:39;15.00;99.90
5901;DHT22;2976;49.764;9.796;2023-05-10T09:23:05;15.20;99.90
5901;DHT22;2976;49.764;9.796;2023-05-10T09:25:31;15.30;99.90
5901;DHT22;2976;49.764;9.796;2023-05-10T09:27:59;15.40;99.90
5901;DHT22;2976;49.764;9.796;2023-05-10T09:30:29;15.30;99.90
5901;DHT22;2976;49.764;9.796;2023-05-10T09:32:56;15.30;99.90
5901;DHT22;2976;49.764;9.796;2023-05-10T09:35:25;15.50;99.90
5901;DHT22;2976;49.764;9.796;2023-05-10T09:37:54;15.50;99.90
5901;DHT22;2976;49.764;9.796;2023-05-10T09:40:22;15.70;99.90
5901;DHT22;2976;49.764;9.796;2023-05-10T09:43:06;15.80;99.90
5901;DHT22;2976;49.764;9.796;2023-05-10T09:45:34;16.10;99.90
5901;DHT22;2976;49.764;9.796;2023-05-10T09:48:01;16.50;99.90
5901;DHT22;2976;49.764;9.796;2023-05-10T09:50:28;17.20;99.90
5901;DHT22;2976;49.764;9.796;2023-05-10T09:52:59;18.00;83.30
5901;DHT22;2976;49.764;9.796;2023-05-10T09:57:59;17.50;42.40
5901;DHT22;2976;49.764;9.796;2023-05-10T10:00:25;16.70;85.80
5901;DHT22;2976;49.764;9.796;2023-05-10T10:02:56;16.40;99.90
5901;DHT22;2976;49.764;9.796;2023-05-10T10:05:28;16.50;99.90
5901;DHT22;2976;49.764;9.796;2023-05-10T10:07:54;16.40;99.90
5901;DHT22;2976;49.764;9.796;2023-05-10T10:10:20;16.30;96.80
5901;DHT22;2976;49.764;9.796;2023-05-10T10:12:46;16.20;99.90
5901;DHT22;2976;49.764;9.796;2023-05-10T10:15:12;16.30;99.90
5901;DHT22;2976;49.764;9.796;2023-05-10T10:17:38;16.30;99.90
5901;DHT22;2976;49.764;9.796;2023-05-10T10:20:04;16.40;99.90
5901;DHT22;2976;49.764;9.796;2023-05-10T10:22:30;16.50;97.00
5901;DHT22;2976;49.764;9.796;2023-05-10T10:24:56;16.70;93.50
5901;DHT22;2976;49.764;9.796;2023-05-10T10:35:49;17.30;53.30
5901;DHT22;2976;49.764;9.796;2023-05-10T10:38:16;17.20;56.80
5901;DHT22;2976;49.764;9.796;2023-05-10T10:40:42;17.00;87.00
5901;DHT22;2976;49.764;9.796;2023-05-10T10:43:27;16.80;69.30
5901;DHT22;2976;49.764;9.796;2023-05-10T10:48:38;16.20;84.80
5901;DHT22;2976;49.764;9.796;2023-05-10T10:51:04;16.40;96.50
5901;DHT22;2976;49.764;9.796;2023-05-10T10:53:30;16.50;88.00
5901;DHT22;2976;49.764;9.796;2023-05-10T10:56:09;16.50;55.20
5901;DHT22;2976;49.764;9.796;2023-05-10T10:58:37;16.70;76.60
5901;DHT22;2976;49.764;9.796;2023-05-10T11:01:14;17.10;57.20
5901;DHT22;2976;49.764;9.796;2023-05-10T11:03:40;17.30;35.30
5901;DHT22;2976;49.764;9.796;2023-05-10T11:06:06;17.20;6.50
5901;DHT22;2976;49.764;9.796;2023-05-10T11:08:35;17.30;19.20
5901;DHT22;2976;49.764;9.796;2023-05-10T11:11:06;17.40;1.10
5901;DHT22;2976;49.764;9.796;2023-05-10T11:13:43;17.70;17.50
5901;DHT22;2976;49.764;9.796;2023-05-10T11:18:39;18.00;1.00
5901;DHT22;2976;49.764;9.796;2023-05-10T11:21:05;18.10;1.00
5901;DHT22;2976;49.764;9.796;2023-05-10T11:23:54;18.20;1.00
5901;DHT22;2976;49.764;9.796;2023-05-10T11:26:34;18.40;1.00
5901;DHT22;2976;49.764;9.796;2023-05-10T11:29:01;18.40;11.50
5901;DHT22;2976;49.764;9.796;2023-05-10T11:31:28;18.30;1.00
5901;DHT22;2976;49.764;9.796;2023-05-10T11:33:57;18.20;12.30
5901;DHT22;2976;49.764;9.796;2023-05-10T11:36:28;18.60;1.00
5901;DHT22;2976;49.764;9.796;2023-05-10T11:38:55;18.90;1.00
5901;DHT22;2976;49.764;9.796;2023-05-10T11:41:22;18.90;1.00
5901;DHT22;2976;49.764;9.796;2023-05-10T11:43:53;18.80;1.00
5901;DHT22;2976;49.764;9.796;2023-05-10T11:46:20;19.10;1.00
5901;DHT22;2976;49.764;9.796;2023-05-10T11:48:49;19.20;1.00
5901;DHT22;2976;49.764;9.796;2023-05-10T11:51:15;18.80;1.00
5901;DHT22;2976;49.764;9.796;2023-05-10T11:53:44;18.30;1.00
5901;DHT22;2976;49.764;9.796;2023-05-10T11:56:10;18.50;1.00
5901;DHT22;2976;49.764;9.796;2023-05-10T11:58:38;18.80;1.00
5901;DHT22;2976;49.764;9.796;2023-05-10T12:01:05;18.70;1.00
5901;DHT22;2976;49.764;9.796;2023-05-10T12:03:31;18.50;1.00
5901;DHT22;2976;49.764;9.796;2023-05-10T12:05:57;18.70;1.00
5901;DHT22;2976;49.764;9.796;2023-05-10T12:08:26;18.80;1.00
5901;DHT22;2976;49.764;9.796;2023-05-10T12:10:53;18.80;99.90
5901;DHT22;2976;49.764;9.796;2023-05-10T12:13:19;18.80;1.00
5901;DHT22;2976;49.764;9.796;2023-05-10T12:15:45;18.80;1.00
5901;DHT22;2976;49.764;9.796;2023-05-10T12:18:14;18.50;1.00
5901;DHT22;2976;49.764;9.796;2023-05-10T12:20:40;18.10;99.90
5901;DHT22;2976;49.764;9.796;2023-05-10T12:23:08;17.70;99.90
5901;DHT22;2976;49.764;9.796;2023-05-10T12:25:35;16.90;91.50
5901;DHT22;2976;49.764;9.796;2023-05-10T12:28:07;16.10;1.00
5901;DHT22;2976;49.764;9.796;2023-05-10T12:30:34;15.70;1.00
5901;DHT22;2976;49.764;9.796;2023-05-10T12:33:08;15.20;99.90
5901;DHT22;2976;49.764;9.796;2023-05-10T12:35:52;14.60;99.90
5901;DHT22;2976;49.764;9.796;2023-05-10T12:38:35;14.00;99.90
5901;DHT22;2976;49.764;9.796;2023-05-10T12:41:04;13.50;99.90
5901;DHT22;2976;49.764;9.796;2023-05-10T12:43:32;13.30;99.90
5901;DHT22;2976;49.764;9.796;2023-05-10T12:45:58;13.20;99.90
5901;DHT22;2976;49.764;9.796;2023-05-10T12:48:23;13.20;99.90
5901;DHT22;2976;49.764;9.796;2023-05-10T12:50:49;13.20;99.90
5901;DHT22;2976;49.764;9.796;2023-05-10T12:53:15;13.10;99.90
5901;DHT22;2976;49.764;9.796;2023-05-10T12:55:41;13.10;99.90
5901;DHT22;2976;49.764;9.796;2023-05-10T12:58:07;13.20;99.90
5901;DHT22;2976;49.764;9.796;2023-05-10T13:00:33;13.30;99.90
5901;DHT22;2976;49.764;9.796;2023-05-10T13:02:58;13.40;99.90
5901;DHT22;2976;49.764;9.796;2023-05-10T13:05:24;13.40;99.90
5901;DHT22;2976;49.764;9.796;2023-05-10T13:07:50;13.50;99.90
5901;DHT22;2976;49.764;9.796;2023-05-10T13:10:16;13.60;99.90
5901;DHT22;2976;49.764;9.796;2023-05-10T13:12:41;13.70;99.90
5901;DHT22;2976;49.764;9.796;2023-05-10T13:15:07;13.80;99.90
5901;DHT22;2976;49.764;9.796;2023-05-10T13:17:33;13.90;99.90
5901;DHT22;2976;49.764;9.796;2023-05-10T13:19:58;14.00;99.90
5901;DHT22;2976;49.764;9.796;2023-05-10T13:22:24;14.10;99.90
5901;DHT22;2976;49.764;9.796;2023-05-10T13:24:49;14.00;99.90
5901;DHT22;2976;49.764;9.796;2023-05-10T13:27:15;14.10;99.90
5901;DHT22;2976;49.764;9.796;2023-05-10T13:29:40;14.00;99.90
5901;DHT22;2976;49.764;9.796;2023-05-10T13:32:06;14.00;99.90
5901;DHT22;2976;49.764;9.796;2023-05-10T13:34:32;13.90;99.90
5901;DHT22;2976;49.764;9.796;2023-05-10T13:36:57;14.00;99.90
5901;DHT22;2976;49.764;9.796;2023-05-10T13:39:23;14.00;99.90
5901;DHT22;2976;49.764;9.796;2023-05-10T13:41:48;14.00;99.90
5901;DHT22;2976;49.764;9.796;2023-05-10T13:44:14;14.00;99.90
5901;DHT22;2976;49.764;9.796;2023-05-10T13:46:41;14.10;99.90
5901;DHT22;2976;49.764;9.796;2023-05-10T13:49:09;14.10;99.90
5901;DHT22;2976;49.764;9.796;2023-05-10T13:51:35;14.20;99.90
5901;DHT22;2976;49.764;9.796;2023-05-10T13:54:01;14.30;99.90
5901;DHT22;2976;49.764;9.796;2023-05-10T13:56:27;14.40;99.90
5901;DHT22;2976;49.764;9.796;2023-05-10T13:58:52;14.60;99.90
5901;DHT22;2976;49.764;9.796;2023-05-10T14:01:18;14.70;99.90
5901;DHT22;2976;49.764;9.796;2023-05-10T14:03:44;14.80;99.90
5901;DHT22;2976;49.764;9.796;2023-05-10T14:06:09;15.00;99.90
5901;DHT22;2976;49.764;9.796;2023-05-10T14:08:35;15.20;99.90
5901;DHT22;2976;49.764;9.796;2023-05-10T14:11:01;15.50;99.90
5901;DHT22;2976;49.764;9.796;2023-05-10T14:13:27;15.70;99.90
5901;DHT22;2976;49.764;9.796;2023-05-10T14:15:53;15.80;99.90
5901;DHT22;2976;49.764;9.796;2023-05-10T14:18:19;15.80;99.90
5901;DHT22;2976;49.764;9.796;2023-05-10T14:20:45;16.00;99.90
5901;DHT22;2976;49.764;9.796;2023-05-10T14:23:11;16.00;99.90
5901;DHT22;2976;49.764;9.796;2023-05-10T14:25:40;16.00;99.90
5901;DHT22;2976;49.764;9.796;2023-05-10T14:28:05;16.00;99.90
5901;DHT22;2976;49.764;9.796;2023-05-10T14:30:31;15.80;99.90
5901;DHT22;2976;49.764;9.796;2023-05-10T14:32:58;15.90;99.90
5901;DHT22;2976;49.764;9.796;2023-05-10T14:35:23;15.90;99.90
5901;DHT22;2976;49.764;9.796;2023-05-10T14:37:49;15.90;99.90
5901;DHT22;2976;49.764;9.796;2023-05-10T14:40:14;15.90;99.90
5901;DHT22;2976;49.764;9.796;2023-05-10T14:42:41;15.80;99.90
5901;DHT22;2976;49.764;9.796;2023-05-10T14:45:07;15.80;99.90
5901;DHT22;2976;49.764;9.796;2023-05-10T14:47:34;15.80;99.90
5901;DHT22;2976;49.764;9.796;2023-05-10T14:49:59;15.80;99.90
5901;DHT22;2976;49.764;9.796;2023-05-10T14:52:25;15.80;99.90
5901;DHT22;2976;49.764;9.796;2023-05-10T14:54:51;15.80;99.90
5901;DHT22;2976;49.764;9.796;2023-05-10T14:57:16;15.90;99.90
5901;DHT22;2976;49.764;9.796;2023-05-10T14:59:42;16.00;99.90
5901;DHT22;2976;49.764;9.796;2023-05-10T15:02:07;16.00;99.90
5901;DHT22;2976;49.764;9.796;2023-05-10T15:04:33;16.20;99.90
5901;DHT22;2976;49.764;9.796;2023-05-10T15:06:59;16.20;99.90
5901;DHT22;2976;49.764;9.796;2023-05-10T15:09:25;16.20;99.90
5901;DHT22;2976;49.764;9.796;2023-05-10T15:11:51;16.00;99.90
5901;DHT22;2976;49.764;9.796;2023-05-10T15:14:16;16.20;99.90
5901;DHT22;2976;49.764;9.796;2023-05-10T15:16:42;16.20;99.90
5901;DHT22;2976;49.764;9.796;2023-05-10T15:19:07;16.30;99.90
5901;DHT22;2976;49.764;9.796;2023-05-10T15:21:33;16.60;99.90
5901;DHT22;2976;49.764;9.796;2023-05-10T15:24:04;16.70;99.90
5901;DHT22;2976;49.764;9.796;2023-05-10T15:26:30;16.70;99.90
5901;DHT22;2976;49.764;9.796;2023-05-10T15:28:56;16.60;99.90
5901;DHT22;2976;49.764;9.796;2023-05-10T15:31:21;16.80;99.90
5901;DHT22;2976;49.764;9.796;2023-05-10T15:33:47;17.00;99.90
5901;DHT22;2976;49.764;9.796;2023-05-10T15:36:13;17.10;99.90
5901;DHT22;2976;49.764;9.796;2023-05-10T15:38:38;17.10;99.90
5901;DHT22;2976;49.764;9.796;2023-05-10T15:41:04;17.00;99.90
5901;DHT22;2976;49.764;9.796;2023-05-10T15:43:29;16.90;99.90
5901;DHT22;2976;49.764;9.796;2023-05-10T15:45:55;16.90;99.90
5901;DHT22;2976;49.764;9.796;2023-05-10T15:48:20;16.80;99.90
5901;DHT22;2976;49.764;9.796;2023-05-10T15:50:46;16.90;99.90
5901;DHT22;2976;49.764;9.796;2023-05-10T15:53:11;17.00;99.40
5901;DHT22;2976;49.764;9.796;2023-05-10T15:55:37;17.00;99.90
5901;DHT22;2976;49.764;9.796;2023-05-10T15:58:03;17.10;99.90
5901;DHT22;2976;49.764;9.796;2023-05-10T16:00:28;17.20;99.90
5901;DHT22;2976;49.764;9.796;2023-05-10T16:02:54;17.20;98.40
5901;DHT22;2976;49.764;9.796;2023-05-10T16:05:20;17.30;76.70
5901;DHT22;2976;49.764;9.796;2023-05-10T16:07:46;17.30;99.90
5901;DHT22;2976;49.764;9.796;2023-05-10T16:10:12;17.40;99.90
5901;DHT22;2976;49.764;9.796;2023-05-10T16:12:38;17.30;90.70
5901;DHT22;2976;49.764;9.796;2023-05-10T16:15:04;17.20;94.50
5901;DHT22;2976;49.764;9.796;2023-05-10T16:17:30;17.20;77.60
5901;DHT22;2976;49.764;9.796;2023-05-10T16:19:56;17.10;59.10
5901;DHT22;2976;49.764;9.796;2023-05-10T16:22:21;17.10;58.80
5901;DHT22;2976;49.764;9.796;2023-05-10T16:24:51;16.90;98.00
5901;DHT22;2976;49.764;9.796;2023-05-10T16:27:18;16.80;99.90
5901;DHT22;2976;49.764;9.796;2023-05-10T16:29:43;16.60;99.90
5901;DHT22;2976;49.764;9.796;2023-05-10T16:32:09;16.50;99.90
5901;DHT22;2976;49.764;9.796;2023-05-10T16:34:35;16.30;99.90